createdAt,value
2018-05-12T00:02:13.274Z,76.58
2018-05-12T00:04:39.054Z,76.21
2018-05-12T00:07:04.874Z,76.31
2018-05-12T00:09:30.664Z,76.74
2018-05-12T00:11:56.453Z,77.03
2018-05-12T00:14:22.550Z,77.05
2018-05-12T00:16:48.346Z,77.19
2018-05-12T00:19:14.164Z,77.11
2018-05-12T00:21:39.986Z,77.15
2018-05-12T00:24:05.757Z,77.67
2018-05-12T00:26:31.565Z,77.71
2018-05-12T00:28:57.385Z,78.32
2018-05-12T00:31:24.147Z,77.82
2018-05-12T00:33:49.934Z,77.37
2018-05-12T00:36:15.737Z,78.16
2018-05-12T00:38:41.544Z,78.51
2018-05-12T00:41:07.329Z,78.90
2018-05-12T00:43:33.185Z,79.75
2018-05-12T00:45:58.965Z,80.76
2018-05-12T00:48:24.756Z,80.58
2018-05-12T00:50:50.538Z,80.84
2018-05-12T00:53:16.335Z,80.51
2018-05-12T00:55:42.108Z,80.45
2018-05-12T00:58:07.918Z,80.75
2018-05-12T01:00:33.739Z,81.08
2018-05-12T01:02:59.517Z,81.61
2018-05-12T01:05:25.560Z,81.75
2018-05-12T01:07:51.353Z,82.29
2018-05-12T01:10:17.131Z,82.18
2018-05-12T01:12:42.939Z,82.06
2018-05-12T01:15:08.729Z,81.55
2018-05-12T01:17:34.500Z,81.55
2018-05-12T01:20:00.297Z,81.85
2018-05-12T01:22:26.096Z,80.94
2018-05-12T01:24:51.908Z,80.42
2018-05-12T01:27:17.757Z,79.64
2018-05-12T01:29:43.546Z,79.22
2018-05-12T01:32:09.389Z,79.66
2018-05-12T01:34:35.193Z,79.88
2018-05-12T01:37:00.979Z,80.13
2018-05-12T01:39:26.786Z,79.48
2018-05-12T01:41:52.564Z,79.60
2018-05-12T01:44:18.368Z,79.69
2018-05-12T01:46:44.158Z,80.10
2018-05-12T01:49:09.932Z,80.04
2018-05-12T01:51:35.751Z,79.82
2018-05-12T01:54:01.538Z,79.90
2018-05-12T01:56:27.352Z,80.05
2018-05-12T01:58:53.129Z,80.06
2018-05-12T02:01:18.921Z,79.67
2018-05-12T02:03:44.726Z,80.00
2018-05-12T02:06:10.515Z,80.05
2018-05-12T02:08:36.317Z,79.80
2018-05-12T02:11:02.109Z,79.91
2018-05-12T02:13:27.886Z,80.09
2018-05-12T02:15:53.690Z,80.13
2018-05-12T02:18:19.497Z,80.06
2018-05-12T02:20:45.272Z,80.10
2018-05-12T02:23:11.062Z,80.42
2018-05-12T02:25:36.870Z,80.30
2018-05-12T02:28:02.654Z,80.16
2018-05-12T02:30:28.564Z,80.73
2018-05-12T02:32:54.268Z,80.37
2018-05-12T02:35:20.086Z,79.81
2018-05-12T02:37:45.897Z,80.14
2018-05-12T02:40:11.682Z,80.56
2018-05-12T02:42:37.482Z,80.81
2018-05-12T02:45:03.317Z,80.63
2018-05-12T02:47:29.096Z,80.83
2018-05-12T02:49:54.881Z,81.07
2018-05-12T02:52:20.677Z,80.80
2018-05-12T02:54:46.462Z,80.61
2018-05-12T02:57:12.241Z,80.94
2018-05-12T02:59:38.026Z,80.99
2018-05-12T03:02:03.819Z,81.36
2018-05-12T03:04:29.617Z,80.87
2018-05-12T03:06:55.392Z,80.63
2018-05-12T03:09:21.205Z,81.07
2018-05-12T03:11:46.999Z,81.32
2018-05-12T03:14:12.788Z,81.43
2018-05-12T03:16:38.585Z,81.60
2018-05-12T03:19:04.374Z,81.82
2018-05-12T03:21:30.180Z,82.21
2018-05-12T03:23:55.970Z,82.35
2018-05-12T03:26:21.749Z,83.05
2018-05-12T03:28:47.551Z,83.32
2018-05-12T03:31:13.337Z,83.67
2018-05-12T03:33:39.121Z,83.55
2018-05-12T03:36:04.937Z,83.45
2018-05-12T03:38:30.737Z,83.60
2018-05-12T03:40:56.520Z,83.77
2018-05-12T03:43:22.304Z,83.91
2018-05-12T03:45:48.101Z,83.78
2018-05-12T03:48:13.909Z,84.11
2018-05-12T03:50:39.693Z,84.37
2018-05-12T03:53:05.482Z,84.08
2018-05-12T03:55:31.288Z,84.08
2018-05-12T03:57:57.058Z,84.22
2018-05-12T04:00:22.864Z,84.78
2018-05-12T04:02:48.974Z,84.63
2018-05-12T04:05:27.113Z,84.75
2018-05-12T04:08:05.280Z,84.66
2018-05-12T04:10:43.308Z,85.20
2018-05-12T04:13:09.120Z,85.29
2018-05-12T04:15:35.750Z,85.01
2018-05-12T04:18:01.542Z,85.30
2018-05-12T04:20:27.329Z,85.58
2018-05-12T04:22:53.116Z,85.39
2018-05-12T04:25:18.932Z,85.52
2018-05-12T04:27:44.716Z,85.52
2018-05-12T04:30:10.511Z,85.60
2018-05-12T04:32:36.286Z,85.58
2018-05-12T04:35:02.104Z,85.85
2018-05-12T04:37:28.027Z,85.77
2018-05-12T04:39:53.803Z,86.07
2018-05-12T04:42:19.925Z,85.89
2018-05-12T04:44:45.727Z,85.91
2018-05-12T04:47:11.527Z,85.94
2018-05-12T04:49:37.328Z,86.04
2018-05-12T04:52:03.159Z,85.93
2018-05-12T04:54:28.943Z,86.07
2018-05-12T04:56:54.729Z,86.49
2018-05-12T04:59:20.517Z,86.30
2018-05-12T05:01:46.347Z,86.02
2018-05-12T05:04:12.155Z,86.35
2018-05-12T05:06:37.938Z,86.55
2018-05-12T05:09:03.787Z,86.49
2018-05-12T05:11:29.588Z,86.46
2018-05-12T05:13:55.364Z,86.68
2018-05-12T05:16:21.148Z,86.95
2018-05-12T05:18:46.940Z,86.38
2018-05-12T05:21:12.795Z,86.19
2018-05-12T05:23:38.509Z,86.21
2018-05-12T05:26:04.317Z,86.41
2018-05-12T05:28:30.096Z,86.34
2018-05-12T05:30:55.890Z,85.84
2018-05-12T05:33:21.706Z,86.24
2018-05-12T05:35:47.486Z,85.84
2018-05-12T05:38:13.286Z,85.71
2018-05-12T05:40:39.081Z,86.02
2018-05-12T05:43:04.868Z,86.00
2018-05-12T05:45:30.660Z,85.86
2018-05-12T05:47:56.436Z,85.74
2018-05-12T05:50:22.230Z,85.72
2018-05-12T05:52:48.025Z,85.84
2018-05-12T05:55:13.804Z,85.84
2018-05-12T05:57:39.604Z,86.05
2018-05-12T06:00:05.429Z,86.36
2018-05-12T06:02:31.230Z,86.57
2018-05-12T06:04:57.049Z,85.99
2018-05-12T06:07:22.842Z,86.09
2018-05-12T06:09:48.617Z,86.25
2018-05-12T06:12:14.429Z,86.02
2018-05-12T06:14:40.209Z,86.21
2018-05-12T06:17:06.001Z,85.77
2018-05-12T06:19:31.800Z,85.84
2018-05-12T06:21:57.594Z,85.56
2018-05-12T06:24:23.378Z,85.38
2018-05-12T06:26:49.172Z,85.43
2018-05-12T06:29:15.327Z,85.30
2018-05-12T06:31:41.105Z,85.47
2018-05-12T06:34:06.898Z,85.07
2018-05-12T06:36:32.699Z,85.00
2018-05-12T06:38:58.494Z,85.41
2018-05-12T06:41:24.288Z,85.23
2018-05-12T06:43:50.087Z,84.86
2018-05-12T06:46:15.932Z,84.38
2018-05-12T06:48:41.684Z,84.27
2018-05-12T06:51:07.478Z,84.31
2018-05-12T06:53:33.263Z,83.45
2018-05-12T06:55:59.334Z,83.36
2018-05-12T06:58:25.113Z,83.55
2018-05-12T07:00:50.930Z,83.02
2018-05-12T07:03:16.884Z,82.91
2018-05-12T07:05:42.675Z,82.54
2018-05-12T07:08:08.461Z,82.50
2018-05-12T07:10:34.250Z,82.38
2018-05-12T07:13:00.056Z,82.76
2018-05-12T07:15:25.874Z,80.62
2018-05-12T07:17:51.671Z,80.83
2018-05-12T07:20:17.453Z,80.92
2018-05-12T07:22:43.256Z,80.43
2018-05-12T07:25:09.041Z,79.80
2018-05-12T07:27:34.830Z,78.65
2018-05-12T07:30:00.650Z,78.96
2018-05-12T07:32:26.699Z,79.67
2018-05-12T07:34:52.493Z,77.89
2018-05-12T07:37:18.287Z,77.65
2018-05-12T07:39:44.365Z,77.01
2018-05-12T07:42:10.178Z,76.29
2018-05-12T07:44:35.953Z,75.12
2018-05-12T07:47:01.823Z,74.23
2018-05-12T07:49:27.605Z,73.79
2018-05-12T07:51:53.409Z,73.28
2018-05-12T07:54:19.215Z,72.93
2018-05-12T07:56:45.498Z,72.34
2018-05-12T07:59:11.290Z,71.95
2018-05-12T08:01:37.069Z,71.54
2018-05-12T08:04:02.901Z,71.54
2018-05-12T08:06:28.699Z,70.68
2018-05-12T08:08:54.506Z,71.50
2018-05-12T08:11:20.297Z,70.93
2018-05-12T08:13:46.102Z,70.58
2018-05-12T08:16:11.912Z,69.72
2018-05-12T08:18:37.699Z,68.99
2018-05-12T08:21:03.519Z,69.41
2018-05-12T08:23:29.311Z,67.78
2018-05-12T08:25:55.113Z,66.83
2018-05-12T08:28:21.008Z,67.04
2018-05-12T08:30:46.790Z,65.73
2018-05-12T08:33:12.604Z,66.06
2018-05-12T08:35:38.532Z,65.63
2018-05-12T08:38:04.323Z,65.31
2018-05-12T08:40:30.238Z,65.30
2018-05-12T08:42:55.929Z,64.68
2018-05-12T08:45:21.709Z,64.39
2018-05-12T08:47:47.484Z,64.86
2018-05-12T08:50:13.273Z,64.37
2018-05-12T08:52:39.078Z,63.52
2018-05-12T08:55:04.862Z,63.06
2018-05-12T08:57:31.516Z,62.15
2018-05-12T08:59:57.374Z,62.00
2018-05-12T09:02:23.166Z,61.96
2018-05-12T09:04:48.982Z,61.94
2018-05-12T09:07:14.806Z,61.56
2018-05-12T09:09:40.565Z,61.17
2018-05-12T09:12:06.379Z,60.77
2018-05-12T09:14:32.170Z,61.13
2018-05-12T09:16:57.963Z,61.88
2018-05-12T09:19:23.841Z,60.30
2018-05-12T09:21:49.632Z,59.94
2018-05-12T09:24:15.438Z,60.32
2018-05-12T09:26:41.266Z,60.39
2018-05-12T09:29:07.067Z,60.60
2018-05-12T09:31:32.906Z,61.46
2018-05-12T09:33:59.127Z,60.72
2018-05-12T09:36:24.878Z,60.02
2018-05-12T09:38:50.665Z,57.86
2018-05-12T09:41:16.501Z,57.85
2018-05-12T09:43:42.289Z,58.01
2018-05-12T09:46:08.187Z,57.94
2018-05-12T09:48:33.989Z,57.66
2018-05-12T09:50:59.795Z,57.21
2018-05-12T09:53:25.577Z,58.44
2018-05-12T09:55:51.380Z,57.52
2018-05-12T09:58:17.177Z,57.47
2018-05-12T10:00:42.974Z,57.61
2018-05-12T10:03:08.774Z,57.04
2018-05-12T10:05:34.693Z,55.19
2018-05-12T10:08:00.490Z,56.13
2018-05-12T10:10:26.274Z,55.16
2018-05-12T10:12:52.125Z,55.02
2018-05-12T10:15:17.898Z,55.74
2018-05-12T10:17:43.685Z,55.61
2018-05-12T10:20:09.746Z,56.83
2018-05-12T10:22:35.554Z,55.65
2018-05-12T10:25:01.341Z,57.12
2018-05-12T10:27:27.223Z,56.88
2018-05-12T10:29:53.001Z,53.95
2018-05-12T10:32:18.773Z,50.26
2018-05-12T10:34:44.577Z,50.80
2018-05-12T10:37:10.362Z,51.08
2018-05-12T10:39:36.177Z,50.82
2018-05-12T10:42:01.980Z,50.19
2018-05-12T10:44:27.758Z,49.81
2018-05-12T10:46:53.920Z,50.40
2018-05-12T10:49:19.715Z,50.26
2018-05-12T10:51:45.511Z,49.43
2018-05-12T10:54:11.328Z,49.28
2018-05-12T10:56:37.118Z,49.52
2018-05-12T10:59:02.915Z,49.82
2018-05-12T11:01:28.723Z,48.92
2018-05-12T11:03:54.502Z,48.45
2018-05-12T11:06:20.285Z,47.46
2018-05-12T11:08:46.081Z,49.44
2018-05-12T11:11:11.906Z,48.33
2018-05-12T11:13:37.706Z,47.42
2018-05-12T11:16:03.619Z,47.67
2018-05-12T11:18:29.319Z,48.87
2018-05-12T11:20:55.145Z,49.38
2018-05-12T11:23:20.928Z,48.82
2018-05-12T11:25:46.713Z,51.00
2018-05-12T11:28:12.526Z,48.97
2018-05-12T11:30:38.331Z,49.46
2018-05-12T11:33:04.134Z,48.25
2018-05-12T11:35:30.182Z,48.69
2018-05-12T11:37:55.969Z,48.74
2018-05-12T11:40:21.770Z,49.91
2018-05-12T11:42:47.563Z,48.26
2018-05-12T11:45:13.348Z,47.82
2018-05-12T11:47:39.142Z,48.19
2018-05-12T11:50:04.948Z,47.12
2018-05-12T11:52:30.745Z,47.80
2018-05-12T11:54:56.533Z,47.92
2018-05-12T11:57:22.308Z,48.43
2018-05-12T11:59:48.104Z,47.25
2018-05-12T12:02:13.905Z,48.98
2018-05-12T12:04:39.701Z,49.72
2018-05-12T12:07:05.488Z,49.81
2018-05-12T12:09:31.365Z,48.09
2018-05-12T12:11:57.151Z,49.10
2018-05-12T12:14:22.942Z,49.36
2018-05-12T12:16:48.756Z,49.58
2018-05-12T12:19:14.548Z,49.14
2018-05-12T12:21:40.347Z,49.52
2018-05-12T12:24:06.151Z,50.04
2018-05-12T12:26:31.944Z,49.55
2018-05-12T12:28:57.740Z,50.27
2018-05-12T12:31:23.538Z,51.08
2018-05-12T12:33:49.339Z,50.13
2018-05-12T12:36:15.305Z,51.28
2018-05-12T12:38:41.126Z,52.14
2018-05-12T12:41:06.912Z,52.65
2018-05-12T12:43:32.709Z,48.84
2018-05-12T12:45:58.494Z,47.30
2018-05-12T12:48:24.270Z,48.27
2018-05-12T12:50:50.078Z,48.30
2018-05-12T12:53:15.862Z,48.04
2018-05-12T12:55:41.650Z,48.04
2018-05-12T12:58:07.433Z,45.01
2018-05-12T13:00:33.244Z,44.33
2018-05-12T13:02:59.024Z,43.78
2018-05-12T13:05:25.157Z,42.73
2018-05-12T13:07:50.947Z,41.81
2018-05-12T13:10:16.730Z,40.93
2018-05-12T13:12:42.539Z,40.89
2018-05-12T13:15:08.321Z,39.89
2018-05-12T13:17:34.161Z,39.83
2018-05-12T13:19:59.963Z,39.68
2018-05-12T13:22:25.780Z,39.76
2018-05-12T13:24:51.582Z,38.10
2018-05-12T13:27:17.556Z,39.07
2018-05-12T13:29:43.356Z,38.48
2018-05-12T13:32:09.154Z,39.44
2018-05-12T13:34:34.965Z,38.33
2018-05-12T13:37:00.741Z,38.40
2018-05-12T13:39:26.525Z,39.24
2018-05-12T13:41:52.365Z,39.48
2018-05-12T13:44:18.160Z,38.24
2018-05-12T13:46:43.950Z,37.61
2018-05-12T13:49:09.730Z,37.99
2018-05-12T13:51:35.523Z,39.10
2018-05-12T13:54:01.370Z,38.56
2018-05-12T13:56:27.153Z,37.12
2018-05-12T13:58:52.966Z,37.40
2018-05-12T14:01:18.745Z,37.49
2018-05-12T14:03:44.537Z,37.25
2018-05-12T14:06:10.376Z,36.06
2018-05-12T14:08:36.156Z,36.05
2018-05-12T14:11:01.978Z,36.62
2018-05-12T14:13:27.763Z,36.08
2018-05-12T14:15:53.568Z,36.73
2018-05-12T14:18:19.357Z,35.30
2018-05-12T14:20:45.134Z,36.33
2018-05-12T14:23:11.242Z,36.54
2018-05-12T14:25:37.022Z,36.09
2018-05-12T14:28:02.835Z,35.96
2018-05-12T14:30:28.654Z,37.90
2018-05-12T14:32:54.435Z,39.63
2018-05-12T14:35:20.227Z,37.95
2018-05-12T14:37:46.039Z,38.10
2018-05-12T14:40:11.823Z,38.70
2018-05-12T14:42:37.664Z,39.13
2018-05-12T14:45:03.456Z,39.37
2018-05-12T14:47:29.269Z,39.49
2018-05-12T14:49:55.061Z,40.08
2018-05-12T14:52:20.855Z,40.62
2018-05-12T14:54:46.642Z,41.24
2018-05-12T14:57:12.430Z,41.39
2018-05-12T14:59:38.227Z,40.80
2018-05-12T15:02:04.035Z,41.00
2018-05-12T15:04:29.832Z,42.69
2018-05-12T15:06:55.601Z,42.55
2018-05-12T15:09:21.392Z,42.52
2018-05-12T15:11:47.194Z,42.21
2018-05-12T15:14:12.974Z,41.76
2018-05-12T15:16:38.744Z,42.62
2018-05-12T15:19:04.539Z,42.07
2018-05-12T15:21:30.337Z,42.53
2018-05-12T15:23:56.124Z,42.93
2018-05-12T15:26:21.910Z,42.45
2018-05-12T15:28:47.690Z,43.50
2018-05-12T15:31:13.473Z,43.04
2018-05-12T15:33:39.559Z,42.93
2018-05-12T15:36:05.345Z,42.43
2018-05-12T15:38:31.116Z,42.66
2018-05-12T15:40:56.932Z,44.32
2018-05-12T15:43:22.705Z,44.61
2018-05-12T15:45:48.489Z,44.30
2018-05-12T15:48:14.579Z,43.75
2018-05-12T15:50:40.366Z,44.18
2018-05-12T15:53:06.143Z,45.82
2018-05-12T15:55:31.941Z,45.29
2018-05-12T15:57:57.720Z,45.58
2018-05-12T16:00:23.502Z,45.21
2018-05-12T16:02:49.308Z,46.32
2018-05-12T16:05:15.089Z,50.13
2018-05-12T16:07:40.865Z,51.87
2018-05-12T16:10:06.650Z,52.80
2018-05-12T16:12:32.429Z,53.64
2018-05-12T16:14:58.227Z,53.07
2018-05-12T16:17:24.012Z,53.94
2018-05-12T16:19:49.800Z,54.44
2018-05-12T16:22:15.697Z,54.39
2018-05-12T16:24:41.513Z,55.64
2018-05-12T16:27:07.296Z,56.05
2018-05-12T16:29:33.086Z,56.69
2018-05-12T16:31:58.868Z,57.68
2018-05-12T16:34:24.658Z,58.28
2018-05-12T16:36:50.470Z,57.95
2018-05-12T16:39:16.268Z,58.51
2018-05-12T16:41:42.062Z,58.57
2018-05-12T16:44:07.856Z,58.67
2018-05-12T16:46:33.652Z,59.43
2018-05-12T16:48:59.433Z,59.10
2018-05-12T16:51:25.232Z,59.52
2018-05-12T16:53:51.026Z,59.44
2018-05-12T16:56:16.810Z,59.71
2018-05-12T16:58:42.633Z,59.57
2018-05-12T17:01:08.406Z,59.50
2018-05-12T17:03:34.183Z,60.16
2018-05-12T17:05:59.981Z,60.33
2018-05-12T17:08:25.777Z,61.12
2018-05-12T17:10:51.571Z,61.43
2018-05-12T17:13:17.383Z,61.49
2018-05-12T17:15:43.166Z,61.66
2018-05-12T17:18:08.950Z,61.46
2018-05-12T17:20:34.745Z,61.72
2018-05-12T17:23:00.533Z,61.75
2018-05-12T17:25:26.331Z,61.67
2018-05-12T17:27:52.128Z,62.12
2018-05-12T17:30:17.920Z,61.84
2018-05-12T17:32:43.698Z,61.88
2018-05-12T17:35:09.505Z,61.66
2018-05-12T17:37:35.288Z,61.88
2018-05-12T17:40:01.065Z,61.76
2018-05-12T17:42:26.853Z,62.35
2018-05-12T17:44:52.624Z,62.85
2018-05-12T17:47:18.426Z,62.98
2018-05-12T17:49:44.206Z,62.79
2018-05-12T17:52:09.997Z,62.49
2018-05-12T17:54:35.813Z,63.21
2018-05-12T17:57:01.607Z,63.09
2018-05-12T17:59:27.407Z,62.49
2018-05-12T18:01:53.240Z,62.94
2018-05-12T18:04:19.017Z,63.50
2018-05-12T18:06:44.817Z,62.89
2018-05-12T18:09:10.614Z,63.91
2018-05-12T18:11:36.488Z,63.61
2018-05-12T18:14:02.245Z,64.29
2018-05-12T18:16:28.093Z,64.02
2018-05-12T18:18:54.092Z,64.31
2018-05-12T18:21:19.896Z,64.64
2018-05-12T18:23:45.690Z,64.67
2018-05-12T18:26:12.493Z,65.28
2018-05-12T18:28:38.422Z,65.71
2018-05-12T18:31:04.241Z,66.46
2018-05-12T18:33:30.072Z,66.40
2018-05-12T18:35:55.861Z,67.34
2018-05-12T18:38:21.970Z,66.48
2018-05-12T18:40:48.673Z,67.06
2018-05-12T18:43:14.460Z,67.24
2018-05-12T18:45:40.257Z,67.30
2018-05-12T18:48:06.049Z,66.80
2018-05-12T18:50:31.841Z,67.58
2018-05-12T18:52:57.632Z,68.10
2018-05-12T18:55:23.613Z,68.15
2018-05-12T18:57:49.397Z,68.18
2018-05-12T19:00:15.533Z,68.05
2018-05-12T19:02:41.318Z,68.58
2018-05-12T19:05:07.185Z,68.51
2018-05-12T19:07:32.989Z,69.27
2018-05-12T19:09:58.772Z,68.97
2018-05-12T19:12:24.556Z,69.24
2018-05-12T19:14:50.394Z,68.60
2018-05-12T19:17:16.334Z,69.75
2018-05-12T19:19:42.034Z,69.09
2018-05-12T19:22:07.830Z,69.65
2018-05-12T19:24:33.614Z,69.52
2018-05-12T19:27:06.532Z,70.57
2018-05-12T19:29:32.570Z,70.29
2018-05-12T19:31:58.358Z,70.89
2018-05-12T19:34:24.158Z,71.02
2018-05-12T19:36:49.965Z,70.82
2018-05-12T19:39:15.846Z,71.65
2018-05-12T19:41:41.662Z,71.67
2018-05-12T19:44:07.478Z,72.28
2018-05-12T19:46:33.298Z,72.23
2018-05-12T19:48:59.454Z,73.07
2018-05-12T19:51:25.314Z,72.75
2018-05-12T19:53:51.347Z,73.16
2018-05-12T19:56:17.177Z,73.82
2018-05-12T19:58:43.237Z,73.59
2018-05-12T20:01:09.033Z,74.32
2018-05-12T20:06:07.494Z,74.24
2018-05-12T20:08:33.323Z,74.68
2018-05-12T20:10:59.111Z,74.87
2018-05-12T20:13:25.878Z,74.78
2018-05-12T20:15:52.993Z,74.95
2018-05-12T20:18:18.890Z,75.83
2018-05-12T20:20:44.686Z,75.72
2018-05-12T20:23:11.369Z,76.06
2018-05-12T20:25:37.212Z,76.32
2018-05-12T20:28:03.011Z,76.71
2018-05-12T20:30:28.811Z,76.77
2018-05-12T20:32:54.629Z,77.06
2018-05-12T20:35:21.191Z,77.63
2018-05-12T20:37:47.001Z,77.46
2018-05-12T20:40:12.833Z,77.37
2018-05-12T20:42:38.647Z,77.66
2018-05-12T20:45:05.503Z,78.16
2018-05-12T20:50:28.237Z,78.75
2018-05-12T20:52:54.051Z,78.42
2018-05-12T20:55:19.958Z,78.55
2018-05-12T20:57:45.769Z,78.94
2018-05-12T21:00:11.978Z,78.72
2018-05-12T21:02:37.799Z,79.02
2018-05-12T21:05:03.885Z,79.26
2018-05-12T21:07:30.065Z,79.45
2018-05-12T21:09:55.852Z,79.89
2018-05-12T21:12:21.661Z,79.67
2018-05-12T21:14:47.473Z,79.89
2018-05-12T21:17:13.844Z,80.58
2018-05-12T21:19:39.649Z,80.67
2018-05-12T21:22:05.777Z,80.62
2018-05-12T21:24:31.861Z,80.43
2018-05-12T21:26:57.680Z,81.07
2018-05-12T21:29:23.905Z,81.26
2018-05-12T21:31:49.678Z,81.62
2018-05-12T21:34:15.456Z,81.45
2018-05-12T21:36:41.605Z,81.65
2018-05-12T21:39:07.402Z,82.10
2018-05-12T21:41:33.521Z,81.97
2018-05-12T21:43:59.330Z,82.22
2018-05-12T21:46:25.426Z,82.22
2018-05-12T21:48:51.233Z,81.94
2018-05-12T21:51:17.297Z,82.66
2018-05-12T21:53:43.178Z,83.13
2018-05-12T21:56:09.006Z,83.71
2018-05-12T21:58:35.094Z,83.86
2018-05-12T22:01:00.893Z,83.81
2018-05-12T22:03:26.782Z,84.08
2018-05-12T22:05:52.585Z,84.09
2018-05-12T22:08:18.608Z,84.18
2018-05-12T22:10:44.665Z,84.66
2018-05-12T22:13:10.488Z,84.56
2018-05-12T22:15:36.281Z,84.31
2018-05-12T22:18:02.786Z,84.83
2018-05-12T22:20:28.597Z,84.67
2018-05-12T22:22:54.693Z,84.45
2018-05-12T22:25:20.505Z,84.92
2018-05-12T22:27:46.458Z,84.82
2018-05-12T22:30:12.449Z,85.00
2018-05-12T22:32:38.258Z,85.04
2018-05-12T22:35:04.041Z,84.84
2018-05-12T22:37:29.859Z,84.94
2018-05-12T22:39:55.687Z,85.25
2018-05-12T22:42:22.008Z,84.84
2018-05-12T22:44:47.849Z,84.87
2018-05-12T22:47:13.652Z,85.08
2018-05-12T22:49:39.443Z,85.22
2018-05-12T22:52:05.251Z,85.30
2018-05-12T22:54:31.054Z,85.32
2018-05-12T22:56:56.860Z,85.08
2018-05-12T22:59:22.642Z,85.29
2018-05-12T23:01:48.565Z,85.28
2018-05-12T23:04:14.348Z,85.45
2018-05-12T23:06:40.149Z,85.73
2018-05-12T23:09:05.949Z,85.72
2018-05-12T23:11:31.741Z,85.75
2018-05-12T23:13:57.545Z,85.83
2018-05-12T23:16:23.371Z,85.85
2018-05-12T23:18:49.177Z,85.52
2018-05-12T23:21:15.185Z,85.91
2018-05-12T23:23:40.985Z,85.96
2018-05-12T23:26:06.772Z,85.80
2018-05-12T23:28:32.591Z,85.94
2018-05-12T23:30:58.396Z,86.04
2018-05-12T23:33:24.212Z,86.15
2018-05-12T23:35:50.048Z,86.14
2018-05-12T23:38:15.860Z,86.48
2018-05-12T23:40:41.659Z,86.55
2018-05-12T23:43:07.765Z,86.44
2018-05-12T23:45:33.538Z,86.92
2018-05-12T23:47:59.368Z,86.90
2018-05-12T23:50:25.174Z,86.84
2018-05-12T23:52:50.961Z,87.22
2018-05-12T23:55:16.758Z,87.46
2018-05-12T23:57:42.549Z,87.44
